sensor_id;sensor_type;location;lat;lon;timestamp;P1;durP1;ratioP1;P2;durP2;ratioP2
53072;SDS011;38955;48.916;2.336;2024-02-16T00:00:29;5.85;;;3.17;;
53072;SDS011;38955;48.916;2.336;2024-02-16T00:02:31;5.13;;;2.95;;
53072;SDS011;38955;48.916;2.336;2024-02-16T00:04:33;7.80;;;3.45;;
53072;SDS011;38955;48.916;2.336;2024-02-16T00:06:36;6.22;;;2.90;;
53072;SDS011;38955;48.916;2.336;2024-02-16T00:08:38;4.88;;;3.20;;
53072;SDS011;38955;48.916;2.336;2024-02-16T00:10:41;5.35;;;2.97;;
53072;SDS011;38955;48.916;2.336;2024-02-16T00:14:49;5.82;;;2.70;;
53072;SDS011;38955;48.916;2.336;2024-02-16T00:16:54;5.85;;;3.10;;
53072;SDS011;38955;48.916;2.336;2024-02-16T00:18:56;5.13;;;3.08;;
53072;SDS011;38955;48.916;2.336;2024-02-16T00:20:59;4.85;;;2.80;;
53072;SDS011;38955;48.916;2.336;2024-02-16T00:23:03;5.78;;;3.58;;
53072;SDS011;38955;48.916;2.336;2024-02-16T00:25:06;7.05;;;3.15;;
53072;SDS011;38955;48.916;2.336;2024-02-16T00:27:11;8.10;;;3.60;;
53072;SDS011;38955;48.916;2.336;2024-02-16T00:29:18;5.20;;;3.22;;
53072;SDS011;38955;48.916;2.336;2024-02-16T00:31:20;8.67;;;3.10;;
53072;SDS011;38955;48.916;2.336;2024-02-16T00:33:22;7.47;;;2.80;;
53072;SDS011;38955;48.916;2.336;2024-02-16T00:35:25;5.95;;;2.80;;
53072;SDS011;38955;48.916;2.336;2024-02-16T00:37:27;8.23;;;3.55;;
53072;SDS011;38955;48.916;2.336;2024-02-16T00:39:29;8.50;;;2.72;;
53072;SDS011;38955;48.916;2.336;2024-02-16T00:41:31;10.00;;;2.33;;
53072;SDS011;38955;48.916;2.336;2024-02-16T00:43:33;5.05;;;2.50;;
53072;SDS011;38955;48.916;2.336;2024-02-16T00:45:37;8.48;;;3.28;;
53072;SDS011;38955;48.916;2.336;2024-02-16T00:47:39;6.70;;;2.60;;
53072;SDS011;38955;48.916;2.336;2024-02-16T00:49:43;7.05;;;2.85;;
53072;SDS011;38955;48.916;2.336;2024-02-16T00:51:46;7.00;;;3.03;;
53072;SDS011;38955;48.916;2.336;2024-02-16T00:53:48;5.47;;;2.40;;
53072;SDS011;38955;48.916;2.336;2024-02-16T00:55:50;7.13;;;2.75;;
53072;SDS011;38955;48.916;2.336;2024-02-16T00:57:52;5.45;;;2.70;;
53072;SDS011;38955;48.916;2.336;2024-02-16T00:59:54;10.23;;;2.60;;
53072;SDS011;38955;48.916;2.336;2024-02-16T01:01:58;3.22;;;2.25;;
53072;SDS011;38955;48.916;2.336;2024-02-16T01:04:00;7.40;;;2.72;;
53072;SDS011;38955;48.916;2.336;2024-02-16T01:06:03;11.50;;;2.92;;
53072;SDS011;38955;48.916;2.336;2024-02-16T01:08:05;8.13;;;2.42;;
53072;SDS011;38955;48.916;2.336;2024-02-16T01:10:07;7.15;;;2.70;;
53072;SDS011;38955;48.916;2.336;2024-02-16T01:12:10;6.53;;;2.55;;
53072;SDS011;38955;48.916;2.336;2024-02-16T01:14:12;8.10;;;2.60;;
53072;SDS011;38955;48.916;2.336;2024-02-16T01:16:15;4.25;;;2.42;;
53072;SDS011;38955;48.916;2.336;2024-02-16T01:18:20;5.38;;;2.45;;
53072;SDS011;38955;48.916;2.336;2024-02-16T01:20:22;3.75;;;1.95;;
53072;SDS011;38955;48.916;2.336;2024-02-16T01:22:24;10.57;;;3.53;;
53072;SDS011;38955;48.916;2.336;2024-02-16T01:24:27;7.88;;;2.35;;
53072;SDS011;38955;48.916;2.336;2024-02-16T01:26:29;6.03;;;2.30;;
53072;SDS011;38955;48.916;2.336;2024-02-16T01:28:31;5.60;;;2.42;;
53072;SDS011;38955;48.916;2.336;2024-02-16T01:30:33;4.03;;;2.33;;
53072;SDS011;38955;48.916;2.336;2024-02-16T01:32:35;6.07;;;2.58;;
53072;SDS011;38955;48.916;2.336;2024-02-16T01:34:39;4.43;;;2.53;;
53072;SDS011;38955;48.916;2.336;2024-02-16T01:36:41;9.07;;;2.90;;
53072;SDS011;38955;48.916;2.336;2024-02-16T01:38:43;6.50;;;2.95;;
53072;SDS011;38955;48.916;2.336;2024-02-16T01:40:45;12.65;;;2.75;;
53072;SDS011;38955;48.916;2.336;2024-02-16T01:42:47;3.80;;;2.33;;
53072;SDS011;38955;48.916;2.336;2024-02-16T01:44:49;6.07;;;2.60;;
53072;SDS011;38955;48.916;2.336;2024-02-16T01:46:52;6.68;;;2.60;;
53072;SDS011;38955;48.916;2.336;2024-02-16T01:48:54;7.95;;;2.85;;
53072;SDS011;38955;48.916;2.336;2024-02-16T01:50:58;5.82;;;2.80;;
53072;SDS011;38955;48.916;2.336;2024-02-16T01:53:06;12.80;;;2.78;;
53072;SDS011;38955;48.916;2.336;2024-02-16T01:55:08;6.85;;;2.85;;
53072;SDS011;38955;48.916;2.336;2024-02-16T01:57:11;7.40;;;2.50;;
53072;SDS011;38955;48.916;2.336;2024-02-16T01:59:14;6.88;;;2.40;;
53072;SDS011;38955;48.916;2.336;2024-02-16T02:01:17;7.07;;;2.63;;
53072;SDS011;38955;48.916;2.336;2024-02-16T02:03:19;7.72;;;2.58;;
53072;SDS011;38955;48.916;2.336;2024-02-16T02:05:21;7.07;;;2.53;;
53072;SDS011;38955;48.916;2.336;2024-02-16T02:07:26;7.70;;;3.25;;
53072;SDS011;38955;48.916;2.336;2024-02-16T02:11:30;6.13;;;2.30;;
53072;SDS011;38955;48.916;2.336;2024-02-16T02:13:32;5.18;;;2.40;;
53072;SDS011;38955;48.916;2.336;2024-02-16T02:15:34;5.13;;;2.80;;
53072;SDS011;38955;48.916;2.336;2024-02-16T02:17:39;8.65;;;2.58;;
53072;SDS011;38955;48.916;2.336;2024-02-16T02:19:42;7.20;;;2.50;;
53072;SDS011;38955;48.916;2.336;2024-02-16T02:21:44;6.43;;;2.20;;
53072;SDS011;38955;48.916;2.336;2024-02-16T02:23:52;7.95;;;2.60;;
53072;SDS011;38955;48.916;2.336;2024-02-16T02:25:54;5.93;;;2.72;;
53072;SDS011;38955;48.916;2.336;2024-02-16T02:27:56;8.00;;;2.88;;
53072;SDS011;38955;48.916;2.336;2024-02-16T02:29:59;7.45;;;2.53;;
53072;SDS011;38955;48.916;2.336;2024-02-16T02:32:01;6.10;;;3.10;;
53072;SDS011;38955;48.916;2.336;2024-02-16T02:34:03;5.78;;;2.75;;
53072;SDS011;38955;48.916;2.336;2024-02-16T02:36:07;7.93;;;3.33;;
53072;SDS011;38955;48.916;2.336;2024-02-16T02:38:09;9.20;;;2.80;;
53072;SDS011;38955;48.916;2.336;2024-02-16T02:40:12;10.60;;;3.25;;
53072;SDS011;38955;48.916;2.336;2024-02-16T02:42:15;5.88;;;2.72;;
53072;SDS011;38955;48.916;2.336;2024-02-16T02:44:17;7.68;;;3.00;;
53072;SDS011;38955;48.916;2.336;2024-02-16T02:46:22;5.95;;;2.70;;
53072;SDS011;38955;48.916;2.336;2024-02-16T02:48:25;6.65;;;3.08;;
53072;SDS011;38955;48.916;2.336;2024-02-16T02:50:27;10.07;;;3.10;;
53072;SDS011;38955;48.916;2.336;2024-02-16T02:52:29;6.47;;;2.60;;
53072;SDS011;38955;48.916;2.336;2024-02-16T02:54:31;5.60;;;2.80;;
53072;SDS011;38955;48.916;2.336;2024-02-16T02:56:35;4.78;;;2.60;;
53072;SDS011;38955;48.916;2.336;2024-02-16T02:58:38;6.47;;;2.40;;
53072;SDS011;38955;48.916;2.336;2024-02-16T03:00:40;8.73;;;2.97;;
53072;SDS011;38955;48.916;2.336;2024-02-16T03:02:42;7.15;;;3.00;;
53072;SDS011;38955;48.916;2.336;2024-02-16T03:04:48;8.50;;;2.85;;
53072;SDS011;38955;48.916;2.336;2024-02-16T03:06:51;10.35;;;2.85;;
53072;SDS011;38955;48.916;2.336;2024-02-16T03:08:53;5.82;;;2.65;;
53072;SDS011;38955;48.916;2.336;2024-02-16T03:10:56;6.05;;;2.58;;
53072;SDS011;38955;48.916;2.336;2024-02-16T03:13:03;8.07;;;3.13;;
53072;SDS011;38955;48.916;2.336;2024-02-16T03:15:06;9.93;;;2.90;;
53072;SDS011;38955;48.916;2.336;2024-02-16T03:17:08;7.75;;;2.72;;
53072;SDS011;38955;48.916;2.336;2024-02-16T03:19:11;8.85;;;3.13;;
53072;SDS011;38955;48.916;2.336;2024-02-16T03:21:13;7.65;;;2.60;;
53072;SDS011;38955;48.916;2.336;2024-02-16T03:23:19;4.90;;;2.60;;
53072;SDS011;38955;48.916;2.336;2024-02-16T03:25:21;7.45;;;2.60;;
53072;SDS011;38955;48.916;2.336;2024-02-16T03:27:25;6.18;;;3.22;;
53072;SDS011;38955;48.916;2.336;2024-02-16T03:29:28;9.15;;;3.20;;
53072;SDS011;38955;48.916;2.336;2024-02-16T03:31:31;10.35;;;2.95;;
53072;SDS011;38955;48.916;2.336;2024-02-16T03:33:37;6.93;;;3.10;;
53072;SDS011;38955;48.916;2.336;2024-02-16T03:35:42;6.40;;;3.00;;
53072;SDS011;38955;48.916;2.336;2024-02-16T03:37:44;5.45;;;2.70;;
53072;SDS011;38955;48.916;2.336;2024-02-16T03:39:46;4.68;;;2.20;;
53072;SDS011;38955;48.916;2.336;2024-02-16T03:41:48;5.95;;;2.67;;
53072;SDS011;38955;48.916;2.336;2024-02-16T03:43:51;5.22;;;2.80;;
53072;SDS011;38955;48.916;2.336;2024-02-16T03:45:57;11.38;;;3.40;;
53072;SDS011;38955;48.916;2.336;2024-02-16T03:47:59;8.18;;;2.78;;
53072;SDS011;38955;48.916;2.336;2024-02-16T03:50:02;9.57;;;3.80;;
53072;SDS011;38955;48.916;2.336;2024-02-16T03:52:04;9.75;;;3.22;;
53072;SDS011;38955;48.916;2.336;2024-02-16T03:54:07;7.47;;;2.90;;
53072;SDS011;38955;48.916;2.336;2024-02-16T03:56:09;7.30;;;2.45;;
53072;SDS011;38955;48.916;2.336;2024-02-16T03:58:11;7.85;;;2.80;;
53072;SDS011;38955;48.916;2.336;2024-02-16T04:00:13;6.68;;;3.03;;
53072;SDS011;38955;48.916;2.336;2024-02-16T04:02:17;7.13;;;3.50;;
53072;SDS011;38955;48.916;2.336;2024-02-16T04:04:20;7.10;;;2.95;;
53072;SDS011;38955;48.916;2.336;2024-02-16T04:06:22;9.90;;;3.40;;
53072;SDS011;38955;48.916;2.336;2024-02-16T04:08:24;10.18;;;2.83;;
53072;SDS011;38955;48.916;2.336;2024-02-16T04:10:26;6.22;;;2.88;;
53072;SDS011;38955;48.916;2.336;2024-02-16T04:12:28;7.07;;;3.50;;
53072;SDS011;38955;48.916;2.336;2024-02-16T04:14:31;7.95;;;2.90;;
53072;SDS011;38955;48.916;2.336;2024-02-16T04:16:35;7.93;;;3.33;;
53072;SDS011;38955;48.916;2.336;2024-02-16T04:18:38;6.63;;;2.67;;
53072;SDS011;38955;48.916;2.336;2024-02-16T04:20:41;7.72;;;3.20;;
53072;SDS011;38955;48.916;2.336;2024-02-16T04:22:43;7.82;;;2.92;;
53072;SDS011;38955;48.916;2.336;2024-02-16T04:24:45;10.43;;;3.65;;
53072;SDS011;38955;48.916;2.336;2024-02-16T04:26:47;9.23;;;2.55;;
53072;SDS011;38955;48.916;2.336;2024-02-16T04:28:50;8.70;;;3.35;;
53072;SDS011;38955;48.916;2.336;2024-02-16T04:30:52;7.25;;;2.97;;
53072;SDS011;38955;48.916;2.336;2024-02-16T04:32:54;10.68;;;3.80;;
53072;SDS011;38955;48.916;2.336;2024-02-16T04:34:58;6.03;;;2.83;;
53072;SDS011;38955;48.916;2.336;2024-02-16T04:37:01;12.40;;;3.60;;
53072;SDS011;38955;48.916;2.336;2024-02-16T04:39:03;7.88;;;2.90;;
53072;SDS011;38955;48.916;2.336;2024-02-16T04:41:08;11.13;;;3.10;;
53072;SDS011;38955;48.916;2.336;2024-02-16T04:43:10;10.02;;;2.97;;
53072;SDS011;38955;48.916;2.336;2024-02-16T04:45:12;9.60;;;3.95;;
53072;SDS011;38955;48.916;2.336;2024-02-16T04:47:15;9.55;;;3.35;;
53072;SDS011;38955;48.916;2.336;2024-02-16T04:49:18;7.82;;;3.67;;
53072;SDS011;38955;48.916;2.336;2024-02-16T04:51:22;9.25;;;2.83;;
53072;SDS011;38955;48.916;2.336;2024-02-16T04:53:24;7.05;;;2.95;;
53072;SDS011;38955;48.916;2.336;2024-02-16T04:55:26;8.40;;;3.38;;
53072;SDS011;38955;48.916;2.336;2024-02-16T04:57:28;8.40;;;3.33;;
53072;SDS011;38955;48.916;2.336;2024-02-16T04:59:30;9.45;;;3.28;;
53072;SDS011;38955;48.916;2.336;2024-02-16T05:01:33;9.82;;;3.08;;
53072;SDS011;38955;48.916;2.336;2024-02-16T05:03:35;9.00;;;3.30;;
53072;SDS011;38955;48.916;2.336;2024-02-16T05:05:37;6.43;;;3.00;;
53072;SDS011;38955;48.916;2.336;2024-02-16T05:07:41;12.50;;;3.00;;
53072;SDS011;38955;48.916;2.336;2024-02-16T05:09:43;8.90;;;3.35;;
53072;SDS011;38955;48.916;2.336;2024-02-16T05:11:45;8.15;;;3.15;;
53072;SDS011;38955;48.916;2.336;2024-02-16T05:13:47;10.93;;;3.08;;
53072;SDS011;38955;48.916;2.336;2024-02-16T05:15:50;11.70;;;3.30;;
53072;SDS011;38955;48.916;2.336;2024-02-16T05:17:52;8.55;;;3.30;;
53072;SDS011;38955;48.916;2.336;2024-02-16T05:19:55;10.80;;;3.13;;
53072;SDS011;38955;48.916;2.336;2024-02-16T05:21:57;8.05;;;3.00;;
53072;SDS011;38955;48.916;2.336;2024-02-16T05:24:00;14.50;;;4.10;;
53072;SDS011;38955;48.916;2.336;2024-02-16T05:26:02;10.02;;;3.25;;
53072;SDS011;38955;48.916;2.336;2024-02-16T05:28:04;10.15;;;3.55;;
53072;SDS011;38955;48.916;2.336;2024-02-16T05:30:08;10.05;;;3.72;;
53072;SDS011;38955;48.916;2.336;2024-02-16T05:32:11;10.50;;;3.88;;
53072;SDS011;38955;48.916;2.336;2024-02-16T05:34:14;7.75;;;3.10;;
53072;SDS011;38955;48.916;2.336;2024-02-16T05:36:16;7.95;;;3.10;;
53072;SDS011;38955;48.916;2.336;2024-02-16T05:38:19;7.47;;;3.08;;
53072;SDS011;38955;48.916;2.336;2024-02-16T05:40:35;10.40;;;3.08;;
53072;SDS011;38955;48.916;2.336;2024-02-16T05:42:54;10.13;;;3.20;;
53072;SDS011;38955;48.916;2.336;2024-02-16T05:45:00;10.98;;;3.40;;
53072;SDS011;38955;48.916;2.336;2024-02-16T05:47:02;9.25;;;3.47;;
53072;SDS011;38955;48.916;2.336;2024-02-16T05:49:07;8.93;;;3.60;;
53072;SDS011;38955;48.916;2.336;2024-02-16T05:51:09;9.00;;;3.10;;
53072;SDS011;38955;48.916;2.336;2024-02-16T05:55:17;10.48;;;3.70;;
53072;SDS011;38955;48.916;2.336;2024-02-16T05:57:23;8.70;;;3.80;;
53072;SDS011;38955;48.916;2.336;2024-02-16T05:59:26;12.00;;;3.42;;
53072;SDS011;38955;48.916;2.336;2024-02-16T06:01:28;16.88;;;4.10;;
53072;SDS011;38955;48.916;2.336;2024-02-16T06:03:31;12.57;;;3.75;;
53072;SDS011;38955;48.916;2.336;2024-02-16T06:05:33;10.50;;;3.30;;
53072;SDS011;38955;48.916;2.336;2024-02-16T06:07:35;15.38;;;4.53;;
53072;SDS011;38955;48.916;2.336;2024-02-16T06:09:40;15.48;;;3.70;;
53072;SDS011;38955;48.916;2.336;2024-02-16T06:11:42;11.95;;;3.95;;
53072;SDS011;38955;48.916;2.336;2024-02-16T06:13:46;11.40;;;3.30;;
53072;SDS011;38955;48.916;2.336;2024-02-16T06:15:48;8.13;;;3.67;;
53072;SDS011;38955;48.916;2.336;2024-02-16T06:17:50;11.55;;;3.65;;
53072;SDS011;38955;48.916;2.336;2024-02-16T06:19:53;18.83;;;4.38;;
53072;SDS011;38955;48.916;2.336;2024-02-16T06:21:55;11.00;;;3.80;;
53072;SDS011;38955;48.916;2.336;2024-02-16T06:23:57;13.57;;;4.32;;
53072;SDS011;38955;48.916;2.336;2024-02-16T06:25:59;14.77;;;3.60;;
53072;SDS011;38955;48.916;2.336;2024-02-16T06:28:01;13.45;;;3.63;;
53072;SDS011;38955;48.916;2.336;2024-02-16T06:30:06;9.75;;;3.83;;
53072;SDS011;38955;48.916;2.336;2024-02-16T06:32:11;18.85;;;3.67;;
53072;SDS011;38955;48.916;2.336;2024-02-16T06:34:14;14.15;;;4.32;;
53072;SDS011;38955;48.916;2.336;2024-02-16T06:36:16;10.75;;;3.35;;
53072;SDS011;38955;48.916;2.336;2024-02-16T06:38:19;22.73;;;4.35;;
53072;SDS011;38955;48.916;2.336;2024-02-16T06:40:22;10.32;;;3.30;;
53072;SDS011;38955;48.916;2.336;2024-02-16T06:42:24;10.07;;;3.80;;
53072;SDS011;38955;48.916;2.336;2024-02-16T06:44:26;8.43;;;3.38;;
53072;SDS011;38955;48.916;2.336;2024-02-16T06:46:29;10.77;;;3.80;;
53072;SDS011;38955;48.916;2.336;2024-02-16T06:48:32;9.95;;;3.67;;
53072;SDS011;38955;48.916;2.336;2024-02-16T06:50:34;15.90;;;3.75;;
53072;SDS011;38955;48.916;2.336;2024-02-16T06:52:36;12.80;;;3.78;;
53072;SDS011;38955;48.916;2.336;2024-02-16T06:54:38;17.33;;;3.95;;
53072;SDS011;38955;48.916;2.336;2024-02-16T06:56:41;13.32;;;3.65;;
53072;SDS011;38955;48.916;2.336;2024-02-16T06:58:43;16.35;;;4.75;;
53072;SDS011;38955;48.916;2.336;2024-02-16T07:00:45;10.63;;;3.63;;
53072;SDS011;38955;48.916;2.336;2024-02-16T07:02:52;16.98;;;4.55;;
53072;SDS011;38955;48.916;2.336;2024-02-16T07:04:54;14.55;;;4.32;;
53072;SDS011;38955;48.916;2.336;2024-02-16T07:06:55;12.55;;;3.60;;
53072;SDS011;38955;48.916;2.336;2024-02-16T07:08:58;12.80;;;3.45;;
53072;SDS011;38955;48.916;2.336;2024-02-16T07:11:00;13.40;;;4.28;;
53072;SDS011;38955;48.916;2.336;2024-02-16T07:13:02;9.93;;;3.28;;
53072;SDS011;38955;48.916;2.336;2024-02-16T07:15:05;11.65;;;3.72;;
53072;SDS011;38955;48.916;2.336;2024-02-16T07:17:08;11.48;;;3.80;;
53072;SDS011;38955;48.916;2.336;2024-02-16T07:19:14;9.80;;;3.38;;
53072;SDS011;38955;48.916;2.336;2024-02-16T07:21:17;15.20;;;3.35;;
53072;SDS011;38955;48.916;2.336;2024-02-16T07:23:22;14.82;;;3.55;;
53072;SDS011;38955;48.916;2.336;2024-02-16T07:25:24;13.15;;;3.45;;
53072;SDS011;38955;48.916;2.336;2024-02-16T07:27:26;18.35;;;4.00;;
53072;SDS011;38955;48.916;2.336;2024-02-16T07:29:28;11.02;;;3.58;;
53072;SDS011;38955;48.916;2.336;2024-02-16T07:31:32;14.52;;;3.75;;
53072;SDS011;38955;48.916;2.336;2024-02-16T07:33:34;10.60;;;4.10;;
53072;SDS011;38955;48.916;2.336;2024-02-16T07:35:41;15.13;;;3.28;;
53072;SDS011;38955;48.916;2.336;2024-02-16T07:37:43;10.05;;;2.88;;
53072;SDS011;38955;48.916;2.336;2024-02-16T07:39:45;10.35;;;3.42;;
53072;SDS011;38955;48.916;2.336;2024-02-16T07:41:48;11.82;;;2.75;;
53072;SDS011;38955;48.916;2.336;2024-02-16T07:43:50;11.35;;;3.47;;
53072;SDS011;38955;48.916;2.336;2024-02-16T07:45:55;9.82;;;3.05;;
53072;SDS011;38955;48.916;2.336;2024-02-16T07:47:58;9.13;;;2.88;;
53072;SDS011;38955;48.916;2.336;2024-02-16T07:50:00;10.32;;;2.50;;
53072;SDS011;38955;48.916;2.336;2024-02-16T07:52:04;11.85;;;2.90;;
53072;SDS011;38955;48.916;2.336;2024-02-16T07:54:06;15.50;;;3.35;;
53072;SDS011;38955;48.916;2.336;2024-02-16T07:56:09;10.13;;;2.42;;
53072;SDS011;38955;48.916;2.336;2024-02-16T07:58:11;11.20;;;2.42;;
53072;SDS011;38955;48.916;2.336;2024-02-16T08:00:14;11.82;;;2.42;;
53072;SDS011;38955;48.916;2.336;2024-02-16T08:02:20;11.10;;;2.85;;
53072;SDS011;38955;48.916;2.336;2024-02-16T08:04:22;8.00;;;2.38;;
53072;SDS011;38955;48.916;2.336;2024-02-16T08:06:25;7.50;;;2.30;;
53072;SDS011;38955;48.916;2.336;2024-02-16T08:08:28;10.23;;;2.35;;
53072;SDS011;38955;48.916;2.336;2024-02-16T08:10:30;10.57;;;2.40;;
53072;SDS011;38955;48.916;2.336;2024-02-16T08:12:33;8.00;;;2.67;;
53072;SDS011;38955;48.916;2.336;2024-02-16T08:14:38;11.27;;;2.10;;
53072;SDS011;38955;48.916;2.336;2024-02-16T08:16:40;9.18;;;2.22;;
53072;SDS011;38955;48.916;2.336;2024-02-16T08:18:43;5.05;;;2.00;;
53072;SDS011;38955;48.916;2.336;2024-02-16T08:20:47;10.70;;;2.90;;
53072;SDS011;38955;48.916;2.336;2024-02-16T08:22:49;9.75;;;2.00;;
53072;SDS011;38955;48.916;2.336;2024-02-16T08:24:52;13.18;;;2.33;;
53072;SDS011;38955;48.916;2.336;2024-02-16T08:26:54;10.20;;;2.38;;
53072;SDS011;38955;48.916;2.336;2024-02-16T08:28:57;9.85;;;2.30;;
53072;SDS011;38955;48.916;2.336;2024-02-16T08:31:00;14.60;;;2.35;;
53072;SDS011;38955;48.916;2.336;2024-02-16T08:33:02;7.63;;;2.20;;
53072;SDS011;38955;48.916;2.336;2024-02-16T08:35:05;5.53;;;1.58;;
53072;SDS011;38955;48.916;2.336;2024-02-16T08:37:07;8.45;;;2.70;;
53072;SDS011;38955;48.916;2.336;2024-02-16T08:39:10;8.38;;;1.92;;
53072;SDS011;38955;48.916;2.336;2024-02-16T08:41:17;9.98;;;2.40;;
53072;SDS011;38955;48.916;2.336;2024-02-16T08:43:19;10.75;;;2.05;;
53072;SDS011;38955;48.916;2.336;2024-02-16T08:45:21;9.63;;;1.98;;
53072;SDS011;38955;48.916;2.336;2024-02-16T08:47:23;5.28;;;1.50;;
53072;SDS011;38955;48.916;2.336;2024-02-16T08:49:25;11.10;;;2.05;;
53072;SDS011;38955;48.916;2.336;2024-02-16T08:51:28;11.07;;;2.72;;
53072;SDS011;38955;48.916;2.336;2024-02-16T08:53:30;7.95;;;1.95;;
53072;SDS011;38955;48.916;2.336;2024-02-16T08:55:32;11.52;;;2.25;;
53072;SDS011;38955;48.916;2.336;2024-02-16T08:57:36;9.07;;;2.20;;
53072;SDS011;38955;48.916;2.336;2024-02-16T08:59:38;6.97;;;2.05;;
53072;SDS011;38955;48.916;2.336;2024-02-16T09:01:42;6.90;;;2.20;;
53072;SDS011;38955;48.916;2.336;2024-02-16T09:03:44;10.30;;;1.92;;
53072;SDS011;38955;48.916;2.336;2024-02-16T09:05:47;5.78;;;1.55;;
53072;SDS011;38955;48.916;2.336;2024-02-16T09:07:49;13.48;;;2.35;;
53072;SDS011;38955;48.916;2.336;2024-02-16T09:09:51;10.27;;;2.20;;
53072;SDS011;38955;48.916;2.336;2024-02-16T09:11:54;7.40;;;1.70;;
53072;SDS011;38955;48.916;2.336;2024-02-16T09:13:58;13.05;;;2.33;;
53072;SDS011;38955;48.916;2.336;2024-02-16T09:16:00;14.35;;;2.22;;
53072;SDS011;38955;48.916;2.336;2024-02-16T09:18:03;8.35;;;2.38;;
53072;SDS011;38955;48.916;2.336;2024-02-16T09:20:06;7.22;;;1.95;;
53072;SDS011;38955;48.916;2.336;2024-02-16T09:22:10;9.15;;;2.60;;
53072;SDS011;38955;48.916;2.336;2024-02-16T09:24:12;7.18;;;1.98;;
53072;SDS011;38955;48.916;2.336;2024-02-16T09:26:19;5.07;;;1.98;;
53072;SDS011;38955;48.916;2.336;2024-02-16T09:28:21;10.65;;;2.60;;
53072;SDS011;38955;48.916;2.336;2024-02-16T09:30:31;7.07;;;2.17;;
53072;SDS011;38955;48.916;2.336;2024-02-16T09:32:34;9.25;;;2.72;;
53072;SDS011;38955;48.916;2.336;2024-02-16T09:34:37;12.45;;;2.88;;
53072;SDS011;38955;48.916;2.336;2024-02-16T09:36:43;7.90;;;1.85;;
53072;SDS011;38955;48.916;2.336;2024-02-16T09:38:45;8.25;;;2.28;;
53072;SDS011;38955;48.916;2.336;2024-02-16T09:40:47;8.98;;;2.42;;
53072;SDS011;38955;48.916;2.336;2024-02-16T09:42:49;7.57;;;2.30;;
53072;SDS011;38955;48.916;2.336;2024-02-16T09:44:52;7.53;;;1.80;;
53072;SDS011;38955;48.916;2.336;2024-02-16T09:46:57;9.53;;;1.80;;
53072;SDS011;38955;48.916;2.336;2024-02-16T09:49:03;11.30;;;2.35;;
53072;SDS011;38955;48.916;2.336;2024-02-16T09:51:06;6.05;;;1.95;;
53072;SDS011;38955;48.916;2.336;2024-02-16T09:53:09;8.07;;;1.60;;
53072;SDS011;38955;48.916;2.336;2024-02-16T09:55:12;7.07;;;1.63;;
53072;SDS011;38955;48.916;2.336;2024-02-16T09:57:16;9.67;;;2.37;;
53072;SDS011;38955;48.916;2.336;2024-02-16T09:59:19;7.00;;;2.00;;
53072;SDS011;38955;48.916;2.336;2024-02-16T10:01:22;10.68;;;2.05;;
53072;SDS011;38955;48.916;2.336;2024-02-16T10:03:27;9.50;;;1.77;;
53072;SDS011;38955;48.916;2.336;2024-02-16T10:05:30;9.30;;;2.63;;
53072;SDS011;38955;48.916;2.336;2024-02-16T10:07:32;7.35;;;2.03;;
53072;SDS011;38955;48.916;2.336;2024-02-16T10:09:34;9.50;;;2.20;;
53072;SDS011;38955;48.916;2.336;2024-02-16T10:11:37;11.07;;;2.30;;
53072;SDS011;38955;48.916;2.336;2024-02-16T10:13:40;6.40;;;1.92;;
53072;SDS011;38955;48.916;2.336;2024-02-16T10:15:42;7.43;;;2.17;;
53072;SDS011;38955;48.916;2.336;2024-02-16T10:17:44;9.20;;;2.25;;
53072;SDS011;38955;48.916;2.336;2024-02-16T10:19:56;6.50;;;2.30;;
53072;SDS011;38955;48.916;2.336;2024-02-16T10:22:05;8.35;;;2.85;;
53072;SDS011;38955;48.916;2.336;2024-02-16T10:24:09;5.72;;;1.77;;
53072;SDS011;38955;48.916;2.336;2024-02-16T10:26:13;9.10;;;1.85;;
53072;SDS011;38955;48.916;2.336;2024-02-16T10:28:15;4.35;;;2.17;;
53072;SDS011;38955;48.916;2.336;2024-02-16T10:30:18;3.90;;;2.20;;
53072;SDS011;38955;48.916;2.336;2024-02-16T10:32:21;5.95;;;2.50;;
53072;SDS011;38955;48.916;2.336;2024-02-16T10:34:25;4.25;;;3.15;;
53072;SDS011;38955;48.916;2.336;2024-02-16T10:36:31;6.90;;;4.38;;
53072;SDS011;38955;48.916;2.336;2024-02-16T10:38:34;6.25;;;4.32;;
53072;SDS011;38955;48.916;2.336;2024-02-16T10:40:37;10.43;;;5.50;;
53072;SDS011;38955;48.916;2.336;2024-02-16T10:42:40;6.60;;;5.15;;
53072;SDS011;38955;48.916;2.336;2024-02-16T10:44:46;7.63;;;6.07;;
53072;SDS011;38955;48.916;2.336;2024-02-16T10:46:49;10.77;;;7.40;;
53072;SDS011;38955;48.916;2.336;2024-02-16T10:48:53;8.82;;;7.25;;
53072;SDS011;38955;48.916;2.336;2024-02-16T10:50:56;8.05;;;7.22;;
53072;SDS011;38955;48.916;2.336;2024-02-16T10:53:02;10.13;;;8.15;;
53072;SDS011;38955;48.916;2.336;2024-02-16T10:55:07;10.27;;;8.95;;
53072;SDS011;38955;48.916;2.336;2024-02-16T10:57:10;9.63;;;8.30;;
53072;SDS011;38955;48.916;2.336;2024-02-16T10:59:13;10.43;;;8.43;;
53072;SDS011;38955;48.916;2.336;2024-02-16T11:01:15;10.60;;;8.35;;
53072;SDS011;38955;48.916;2.336;2024-02-16T11:03:17;13.13;;;9.27;;
53072;SDS011;38955;48.916;2.336;2024-02-16T11:05:34;11.75;;;8.30;;
53072;SDS011;38955;48.916;2.336;2024-02-16T11:07:36;10.30;;;8.27;;
53072;SDS011;38955;48.916;2.336;2024-02-16T11:09:40;13.07;;;9.98;;
53072;SDS011;38955;48.916;2.336;2024-02-16T11:11:50;10.23;;;8.68;;
53072;SDS011;38955;48.916;2.336;2024-02-16T11:13:54;10.35;;;9.25;;
53072;SDS011;38955;48.916;2.336;2024-02-16T11:15:58;10.10;;;8.45;;
53072;SDS011;38955;48.916;2.336;2024-02-16T11:18:01;9.88;;;8.15;;
53072;SDS011;38955;48.916;2.336;2024-02-16T11:20:06;14.23;;;8.93;;
53072;SDS011;38955;48.916;2.336;2024-02-16T11:22:09;10.07;;;8.57;;
53072;SDS011;38955;48.916;2.336;2024-02-16T11:24:13;7.35;;;6.57;;
53072;SDS011;38955;48.916;2.336;2024-02-16T11:26:17;10.93;;;7.88;;
53072;SDS011;38955;48.916;2.336;2024-02-16T11:28:19;8.77;;;7.55;;
53072;SDS011;38955;48.916;2.336;2024-02-16T11:30:22;8.75;;;7.90;;
53072;SDS011;38955;48.916;2.336;2024-02-16T11:32:24;8.75;;;7.65;;
53072;SDS011;38955;48.916;2.336;2024-02-16T11:34:29;8.23;;;7.03;;
53072;SDS011;38955;48.916;2.336;2024-02-16T11:36:32;7.63;;;6.82;;
53072;SDS011;38955;48.916;2.336;2024-02-16T11:38:36;7.18;;;5.53;;
53072;SDS011;38955;48.916;2.336;2024-02-16T11:40:39;7.65;;;5.95;;
53072;SDS011;38955;48.916;2.336;2024-02-16T11:42:42;10.60;;;6.57;;
53072;SDS011;38955;48.916;2.336;2024-02-16T11:44:51;7.53;;;6.05;;
53072;SDS011;38955;48.916;2.336;2024-02-16T11:46:55;12.07;;;6.38;;
53072;SDS011;38955;48.916;2.336;2024-02-16T11:49:04;7.35;;;6.40;;
53072;SDS011;38955;48.916;2.336;2024-02-16T11:51:07;8.38;;;6.82;;
53072;SDS011;38955;48.916;2.336;2024-02-16T11:53:09;10.95;;;6.28;;
53072;SDS011;38955;48.916;2.336;2024-02-16T11:55:15;7.60;;;6.13;;
53072;SDS011;38955;48.916;2.336;2024-02-16T11:57:18;8.65;;;6.00;;
53072;SDS011;38955;48.916;2.336;2024-02-16T11:59:22;7.65;;;5.72;;
53072;SDS011;38955;48.916;2.336;2024-02-16T12:01:24;5.63;;;4.35;;
53072;SDS011;38955;48.916;2.336;2024-02-16T12:03:26;8.98;;;5.53;;
53072;SDS011;38955;48.916;2.336;2024-02-16T12:05:30;5.88;;;4.78;;
53072;SDS011;38955;48.916;2.336;2024-02-16T12:07:32;5.22;;;4.57;;
53072;SDS011;38955;48.916;2.336;2024-02-16T12:09:35;7.78;;;5.35;;
53072;SDS011;38955;48.916;2.336;2024-02-16T12:11:38;10.60;;;4.78;;
53072;SDS011;38955;48.916;2.336;2024-02-16T12:13:41;6.93;;;4.30;;
53072;SDS011;38955;48.916;2.336;2024-02-16T12:15:45;6.85;;;4.60;;
53072;SDS011;38955;48.916;2.336;2024-02-16T12:17:57;7.75;;;4.45;;
53072;SDS011;38955;48.916;2.336;2024-02-16T12:20:01;5.13;;;4.13;;
53072;SDS011;38955;48.916;2.336;2024-02-16T12:22:04;10.07;;;4.03;;
53072;SDS011;38955;48.916;2.336;2024-02-16T12:24:07;5.75;;;4.05;;